sensor_id;sensor_type;location;lat;lon;timestamp;P1;durP1;ratioP1;P2;durP2;ratioP2
54259;SDS011;40172;53.022;7.012;2024-03-23T00:55:33;59.25;;;11.18;;
54259;SDS011;40172;53.022;7.012;2024-03-23T00:57:58;25.65;;;3.30;;
54259;SDS011;40172;53.022;7.012;2024-03-23T01:00:24;17.48;;;3.22;;
54259;SDS011;40172;53.022;7.012;2024-03-23T01:02:50;30.10;;;3.55;;
54259;SDS011;40172;53.022;7.012;2024-03-23T01:05:15;68.95;;;11.23;;
54259;SDS011;40172;53.022;7.012;2024-03-23T01:07:41;60.95;;;10.27;;
54259;SDS011;40172;53.022;7.012;2024-03-23T01:10:07;66.00;;;11.07;;
54259;SDS011;40172;53.022;7.012;2024-03-23T01:12:33;63.05;;;10.43;;
54259;SDS011;40172;53.022;7.012;2024-03-23T01:14:58;59.65;;;10.32;;
54259;SDS011;40172;53.022;7.012;2024-03-23T01:17:24;63.03;;;10.70;;
54259;SDS011;40172;53.022;7.012;2024-03-23T01:19:50;70.18;;;10.48;;
54259;SDS011;40172;53.022;7.012;2024-03-23T01:22:15;69.13;;;10.95;;
54259;SDS011;40172;53.022;7.012;2024-03-23T01:24:41;58.05;;;9.93;;
54259;SDS011;40172;53.022;7.012;2024-03-23T01:27:07;63.58;;;10.18;;
54259;SDS011;40172;53.022;7.012;2024-03-23T01:29:33;61.58;;;10.20;;
54259;SDS011;40172;53.022;7.012;2024-03-23T01:31:59;58.05;;;10.35;;
54259;SDS011;40172;53.022;7.012;2024-03-23T01:34:25;20.30;;;3.42;;
54259;SDS011;40172;53.022;7.012;2024-03-23T01:36:51;14.52;;;1.58;;
54259;SDS011;40172;53.022;7.012;2024-03-23T01:39:16;11.30;;;2.63;;
54259;SDS011;40172;53.022;7.012;2024-03-23T01:41:42;64.50;;;10.75;;
54259;SDS011;40172;53.022;7.012;2024-03-23T01:44:08;34.40;;;5.68;;
54259;SDS011;40172;53.022;7.012;2024-03-23T01:46:37;61.35;;;9.48;;
54259;SDS011;40172;53.022;7.012;2024-03-23T01:49:07;60.45;;;10.20;;
54259;SDS011;40172;53.022;7.012;2024-03-23T01:51:33;62.38;;;10.18;;
54259;SDS011;40172;53.022;7.012;2024-03-23T01:54:01;66.28;;;9.77;;
54259;SDS011;40172;53.022;7.012;2024-03-23T01:56:32;60.55;;;9.27;;
54259;SDS011;40172;53.022;7.012;2024-03-23T01:59:00;53.38;;;9.18;;
54259;SDS011;40172;53.022;7.012;2024-03-23T02:01:26;64.28;;;10.05;;
54259;SDS011;40172;53.022;7.012;2024-03-23T02:03:52;53.53;;;8.60;;
54259;SDS011;40172;53.022;7.012;2024-03-23T02:06:17;61.15;;;9.32;;
54259;SDS011;40172;53.022;7.012;2024-03-23T02:08:43;58.95;;;8.90;;
54259;SDS011;40172;53.022;7.012;2024-03-23T02:11:09;54.38;;;9.35;;
54259;SDS011;40172;53.022;7.012;2024-03-23T02:13:35;26.48;;;4.53;;
54259;SDS011;40172;53.022;7.012;2024-03-23T02:16:01;57.15;;;9.00;;
54259;SDS011;40172;53.022;7.012;2024-03-23T02:18:26;20.80;;;2.58;;
54259;SDS011;40172;53.022;7.012;2024-03-23T02:20:52;11.77;;;2.42;;
54259;SDS011;40172;53.022;7.012;2024-03-23T02:23:18;9.73;;;2.35;;
54259;SDS011;40172;53.022;7.012;2024-03-23T02:25:44;6.95;;;2.13;;
54259;SDS011;40172;53.022;7.012;2024-03-23T02:28:10;18.63;;;2.53;;
54259;SDS011;40172;53.022;7.012;2024-03-23T02:30:36;10.20;;;2.67;;
54259;SDS011;40172;53.022;7.012;2024-03-23T02:33:03;13.38;;;2.95;;
54259;SDS011;40172;53.022;7.012;2024-03-23T02:35:29;61.35;;;9.90;;
54259;SDS011;40172;53.022;7.012;2024-03-23T02:37:55;57.22;;;9.60;;
54259;SDS011;40172;53.022;7.012;2024-03-23T02:40:22;61.75;;;9.70;;
54259;SDS011;40172;53.022;7.012;2024-03-23T02:42:48;16.92;;;3.15;;
54259;SDS011;40172;53.022;7.012;2024-03-23T02:45:14;20.35;;;3.65;;
54259;SDS011;40172;53.022;7.012;2024-03-23T02:47:40;53.53;;;10.20;;
54259;SDS011;40172;53.022;7.012;2024-03-23T02:50:06;26.88;;;3.92;;
54259;SDS011;40172;53.022;7.012;2024-03-23T02:52:32;15.65;;;3.35;;
54259;SDS011;40172;53.022;7.012;2024-03-23T02:54:58;14.10;;;2.90;;
54259;SDS011;40172;53.022;7.012;2024-03-23T02:57:23;19.50;;;4.15;;
54259;SDS011;40172;53.022;7.012;2024-03-23T02:59:49;24.77;;;3.58;;
54259;SDS011;40172;53.022;7.012;2024-03-23T03:02:15;14.95;;;2.55;;
54259;SDS011;40172;53.022;7.012;2024-03-23T03:04:41;12.25;;;2.60;;
54259;SDS011;40172;53.022;7.012;2024-03-23T03:07:07;16.88;;;2.55;;
54259;SDS011;40172;53.022;7.012;2024-03-23T03:09:33;16.00;;;3.03;;
54259;SDS011;40172;53.022;7.012;2024-03-23T03:12:00;16.13;;;4.13;;
54259;SDS011;40172;53.022;7.012;2024-03-23T03:14:29;16.85;;;2.58;;
54259;SDS011;40172;53.022;7.012;2024-03-23T03:16:55;50.45;;;9.13;;
54259;SDS011;40172;53.022;7.012;2024-03-23T03:19:20;63.88;;;10.15;;
54259;SDS011;40172;53.022;7.012;2024-03-23T03:21:46;55.33;;;10.18;;
54259;SDS011;40172;53.022;7.012;2024-03-23T03:24:13;49.92;;;9.18;;
54259;SDS011;40172;53.022;7.012;2024-03-23T03:26:38;65.13;;;10.63;;
54259;SDS011;40172;53.022;7.012;2024-03-23T03:29:04;62.85;;;9.90;;
54259;SDS011;40172;53.022;7.012;2024-03-23T03:31:30;40.42;;;4.18;;
54259;SDS011;40172;53.022;7.012;2024-03-23T03:33:56;12.32;;;2.47;;
54259;SDS011;40172;53.022;7.012;2024-03-23T03:36:22;13.23;;;3.20;;
54259;SDS011;40172;53.022;7.012;2024-03-23T03:38:47;14.60;;;3.15;;
54259;SDS011;40172;53.022;7.012;2024-03-23T03:41:13;64.30;;;10.77;;
54259;SDS011;40172;53.022;7.012;2024-03-23T03:43:39;13.48;;;1.95;;
54259;SDS011;40172;53.022;7.012;2024-03-23T03:46:04;7.15;;;1.80;;
54259;SDS011;40172;53.022;7.012;2024-03-23T03:48:33;58.55;;;10.52;;
54259;SDS011;40172;53.022;7.012;2024-03-23T03:50:59;55.90;;;9.52;;
54259;SDS011;40172;53.022;7.012;2024-03-23T03:53:25;59.95;;;9.95;;
54259;SDS011;40172;53.022;7.012;2024-03-23T03:55:51;60.30;;;9.60;;
54259;SDS011;40172;53.022;7.012;2024-03-23T03:58:17;13.88;;;3.25;;
54259;SDS011;40172;53.022;7.012;2024-03-23T04:00:43;21.58;;;3.17;;
54259;SDS011;40172;53.022;7.012;2024-03-23T04:03:08;12.30;;;2.28;;
54259;SDS011;40172;53.022;7.012;2024-03-23T04:05:34;6.10;;;1.38;;
54259;SDS011;40172;53.022;7.012;2024-03-23T04:08:00;17.65;;;2.53;;
54259;SDS011;40172;53.022;7.012;2024-03-23T04:10:26;8.57;;;3.15;;
54259;SDS011;40172;53.022;7.012;2024-03-23T04:12:52;10.40;;;2.22;;
54259;SDS011;40172;53.022;7.012;2024-03-23T04:15:19;55.42;;;10.60;;
54259;SDS011;40172;53.022;7.012;2024-03-23T04:17:45;8.45;;;2.45;;
54259;SDS011;40172;53.022;7.012;2024-03-23T04:20:10;17.58;;;3.55;;
54259;SDS011;40172;53.022;7.012;2024-03-23T04:22:38;19.58;;;2.80;;
54259;SDS011;40172;53.022;7.012;2024-03-23T04:25:05;27.98;;;3.15;;
54259;SDS011;40172;53.022;7.012;2024-03-23T04:27:38;16.95;;;3.60;;
54259;SDS011;40172;53.022;7.012;2024-03-23T04:30:05;9.38;;;1.92;;
54259;SDS011;40172;53.022;7.012;2024-03-23T04:32:36;10.02;;;2.05;;
54259;SDS011;40172;53.022;7.012;2024-03-23T04:35:02;14.90;;;3.40;;
54259;SDS011;40172;53.022;7.012;2024-03-23T04:37:33;15.43;;;1.77;;
54259;SDS011;40172;53.022;7.012;2024-03-23T04:40:00;15.85;;;2.25;;
54259;SDS011;40172;53.022;7.012;2024-03-23T04:42:29;7.70;;;1.65;;
54259;SDS011;40172;53.022;7.012;2024-03-23T04:44:55;40.28;;;7.63;;
54259;SDS011;40172;53.022;7.012;2024-03-23T04:47:21;54.38;;;9.30;;
54259;SDS011;40172;53.022;7.012;2024-03-23T04:49:47;17.50;;;2.67;;
54259;SDS011;40172;53.022;7.012;2024-03-23T04:52:13;28.75;;;2.13;;
54259;SDS011;40172;53.022;7.012;2024-03-23T04:54:39;13.10;;;2.05;;
54259;SDS011;40172;53.022;7.012;2024-03-23T04:57:05;14.13;;;1.75;;
54259;SDS011;40172;53.022;7.012;2024-03-23T04:59:31;6.07;;;1.58;;
54259;SDS011;40172;53.022;7.012;2024-03-23T05:01:57;13.82;;;2.67;;
54259;SDS011;40172;53.022;7.012;2024-03-23T05:04:23;10.35;;;2.90;;
54259;SDS011;40172;53.022;7.012;2024-03-23T05:06:48;7.13;;;1.85;;
54259;SDS011;40172;53.022;7.012;2024-03-23T05:09:14;2.70;;;1.08;;
54259;SDS011;40172;53.022;7.012;2024-03-23T05:11:40;16.42;;;2.88;;
54259;SDS011;40172;53.022;7.012;2024-03-23T05:14:07;6.53;;;1.65;;
54259;SDS011;40172;53.022;7.012;2024-03-23T05:16:33;7.40;;;1.00;;
54259;SDS011;40172;53.022;7.012;2024-03-23T05:18:59;8.32;;;2.10;;
54259;SDS011;40172;53.022;7.012;2024-03-23T05:21:25;7.00;;;2.30;;
54259;SDS011;40172;53.022;7.012;2024-03-23T05:23:53;3.53;;;0.38;;
54259;SDS011;40172;53.022;7.012;2024-03-23T05:26:19;3.05;;;1.05;;
54259;SDS011;40172;53.022;7.012;2024-03-23T05:28:45;8.73;;;2.33;;
54259;SDS011;40172;53.022;7.012;2024-03-23T05:31:10;3.00;;;1.05;;
54259;SDS011;40172;53.022;7.012;2024-03-23T05:33:36;7.00;;;1.70;;
54259;SDS011;40172;53.022;7.012;2024-03-23T05:36:03;16.40;;;1.85;;
54259;SDS011;40172;53.022;7.012;2024-03-23T05:38:29;10.13;;;1.85;;
54259;SDS011;40172;53.022;7.012;2024-03-23T05:43:24;4.55;;;1.00;;
54259;SDS011;40172;53.022;7.012;2024-03-23T05:45:57;10.93;;;1.00;;
54259;SDS011;40172;53.022;7.012;2024-03-23T05:48:24;4.68;;;1.35;;
54259;SDS011;40172;53.022;7.012;2024-03-23T05:50:55;33.97;;;6.85;;
54259;SDS011;40172;53.022;7.012;2024-03-23T05:53:21;39.45;;;6.85;;
54259;SDS011;40172;53.022;7.012;2024-03-23T05:55:46;12.90;;;2.58;;
54259;SDS011;40172;53.022;7.012;2024-03-23T05:58:14;13.15;;;5.35;;
54259;SDS011;40172;53.022;7.012;2024-03-23T06:00:40;14.40;;;1.77;;
54259;SDS011;40172;53.022;7.012;2024-03-23T06:03:07;3.65;;;0.77;;
54259;SDS011;40172;53.022;7.012;2024-03-23T06:05:33;6.07;;;0.88;;
54259;SDS011;40172;53.022;7.012;2024-03-23T06:07:59;10.75;;;1.90;;
54259;SDS011;40172;53.022;7.012;2024-03-23T06:10:25;6.28;;;1.73;;
54259;SDS011;40172;53.022;7.012;2024-03-23T06:12:51;5.35;;;1.20;;
54259;SDS011;40172;53.022;7.012;2024-03-23T06:15:20;13.73;;;1.88;;
54259;SDS011;40172;53.022;7.012;2024-03-23T06:17:47;7.65;;;1.25;;
54259;SDS011;40172;53.022;7.012;2024-03-23T06:20:13;6.03;;;1.65;;
54259;SDS011;40172;53.022;7.012;2024-03-23T06:22:39;5.63;;;1.45;;
54259;SDS011;40172;53.022;7.012;2024-03-23T06:25:05;6.38;;;1.08;;
54259;SDS011;40172;53.022;7.012;2024-03-23T06:27:31;5.63;;;1.33;;
54259;SDS011;40172;53.022;7.012;2024-03-23T06:29:58;6.18;;;1.08;;
54259;SDS011;40172;53.022;7.012;2024-03-23T06:32:27;5.72;;;1.45;;
54259;SDS011;40172;53.022;7.012;2024-03-23T06:34:54;3.67;;;0.80;;
54259;SDS011;40172;53.022;7.012;2024-03-23T06:37:20;30.70;;;6.03;;
54259;SDS011;40172;53.022;7.012;2024-03-23T06:39:46;7.47;;;2.92;;
54259;SDS011;40172;53.022;7.012;2024-03-23T06:42:12;11.50;;;1.67;;
54259;SDS011;40172;53.022;7.012;2024-03-23T06:44:38;5.15;;;1.38;;
54259;SDS011;40172;53.022;7.012;2024-03-23T06:47:04;9.68;;;1.83;;
54259;SDS011;40172;53.022;7.012;2024-03-23T06:49:30;11.60;;;2.63;;
54259;SDS011;40172;53.022;7.012;2024-03-23T06:51:56;3.35;;;1.23;;
54259;SDS011;40172;53.022;7.012;2024-03-23T06:54:22;10.75;;;1.45;;
54259;SDS011;40172;53.022;7.012;2024-03-23T06:56:49;6.97;;;1.30;;
54259;SDS011;40172;53.022;7.012;2024-03-23T06:59:15;23.73;;;5.07;;
54259;SDS011;40172;53.022;7.012;2024-03-23T07:01:41;26.45;;;4.50;;
54259;SDS011;40172;53.022;7.012;2024-03-23T07:04:07;22.58;;;4.25;;
54259;SDS011;40172;53.022;7.012;2024-03-23T07:06:33;29.15;;;5.13;;
54259;SDS011;40172;53.022;7.012;2024-03-23T07:08:59;21.80;;;4.07;;
54259;SDS011;40172;53.022;7.012;2024-03-23T07:11:24;10.13;;;1.98;;
54259;SDS011;40172;53.022;7.012;2024-03-23T07:13:51;15.45;;;2.47;;
54259;SDS011;40172;53.022;7.012;2024-03-23T07:16:19;8.13;;;1.33;;
54259;SDS011;40172;53.022;7.012;2024-03-23T07:18:46;7.47;;;1.48;;
54259;SDS011;40172;53.022;7.012;2024-03-23T07:21:12;3.50;;;1.10;;
54259;SDS011;40172;53.022;7.012;2024-03-23T07:23:38;20.00;;;3.78;;
54259;SDS011;40172;53.022;7.012;2024-03-23T07:26:09;21.42;;;4.32;;
54259;SDS011;40172;53.022;7.012;2024-03-23T07:28:35;20.02;;;4.55;;
54259;SDS011;40172;53.022;7.012;2024-03-23T07:31:08;22.25;;;4.22;;
54259;SDS011;40172;53.022;7.012;2024-03-23T07:33:35;21.83;;;4.25;;
54259;SDS011;40172;53.022;7.012;2024-03-23T07:36:02;8.05;;;1.85;;
54259;SDS011;40172;53.022;7.012;2024-03-23T07:38:28;1.80;;;0.80;;
54259;SDS011;40172;53.022;7.012;2024-03-23T07:43:30;9.30;;;1.55;;
54259;SDS011;40172;53.022;7.012;2024-03-23T07:45:56;0.65;;;0.60;;
54259;SDS011;40172;53.022;7.012;2024-03-23T07:48:21;3.50;;;0.60;;
54259;SDS011;40172;53.022;7.012;2024-03-23T07:53:26;0.77;;;0.55;;
54259;SDS011;40172;53.022;7.012;2024-03-23T07:55:57;4.97;;;1.17;;
54259;SDS011;40172;53.022;7.012;2024-03-23T07:58:24;1.02;;;0.65;;
54259;SDS011;40172;53.022;7.012;2024-03-23T08:00:51;2.80;;;1.48;;
54259;SDS011;40172;53.022;7.012;2024-03-23T08:03:20;16.27;;;3.20;;
54259;SDS011;40172;53.022;7.012;2024-03-23T08:05:47;13.73;;;3.30;;
54259;SDS011;40172;53.022;7.012;2024-03-23T08:08:12;18.25;;;3.10;;
54259;SDS011;40172;53.022;7.012;2024-03-23T08:10:50;15.48;;;2.90;;
54259;SDS011;40172;53.022;7.012;2024-03-23T08:13:17;15.73;;;3.88;;
54259;SDS011;40172;53.022;7.012;2024-03-23T08:15:43;10.25;;;3.00;;
54259;SDS011;40172;53.022;7.012;2024-03-23T08:18:10;14.05;;;3.05;;
54259;SDS011;40172;53.022;7.012;2024-03-23T08:20:36;15.88;;;3.22;;
54259;SDS011;40172;53.022;7.012;2024-03-23T08:23:02;18.25;;;3.33;;
54259;SDS011;40172;53.022;7.012;2024-03-23T08:25:30;18.08;;;3.60;;
54259;SDS011;40172;53.022;7.012;2024-03-23T08:27:56;15.10;;;2.92;;
54259;SDS011;40172;53.022;7.012;2024-03-23T08:30:22;14.88;;;3.45;;
54259;SDS011;40172;53.022;7.012;2024-03-23T08:32:48;16.73;;;3.65;;
54259;SDS011;40172;53.022;7.012;2024-03-23T08:35:14;19.25;;;3.40;;
54259;SDS011;40172;53.022;7.012;2024-03-23T08:37:39;15.35;;;3.17;;
54259;SDS011;40172;53.022;7.012;2024-03-23T08:40:05;15.73;;;3.42;;
54259;SDS011;40172;53.022;7.012;2024-03-23T08:42:33;6.60;;;2.85;;
54259;SDS011;40172;53.022;7.012;2024-03-23T08:44:59;1.73;;;0.80;;
54259;SDS011;40172;53.022;7.012;2024-03-23T08:47:25;14.52;;;3.30;;
54259;SDS011;40172;53.022;7.012;2024-03-23T08:49:50;13.77;;;2.58;;
54259;SDS011;40172;53.022;7.012;2024-03-23T08:52:16;9.57;;;2.47;;
54259;SDS011;40172;53.022;7.012;2024-03-23T08:54:42;10.88;;;2.33;;
54259;SDS011;40172;53.022;7.012;2024-03-23T08:57:08;11.25;;;2.60;;
54259;SDS011;40172;53.022;7.012;2024-03-23T08:59:34;10.45;;;2.17;;
54259;SDS011;40172;53.022;7.012;2024-03-23T09:01:59;13.52;;;2.85;;
54259;SDS011;40172;53.022;7.012;2024-03-23T09:04:25;11.10;;;2.60;;
54259;SDS011;40172;53.022;7.012;2024-03-23T09:06:51;11.40;;;2.55;;
54259;SDS011;40172;53.022;7.012;2024-03-23T09:09:17;10.93;;;2.50;;
54259;SDS011;40172;53.022;7.012;2024-03-23T09:11:42;9.98;;;1.85;;
54259;SDS011;40172;53.022;7.012;2024-03-23T09:14:08;14.60;;;2.80;;
54259;SDS011;40172;53.022;7.012;2024-03-23T09:16:34;14.45;;;3.10;;
54259;SDS011;40172;53.022;7.012;2024-03-23T09:19:00;12.75;;;3.08;;
54259;SDS011;40172;53.022;7.012;2024-03-23T09:21:26;15.25;;;3.13;;
54259;SDS011;40172;53.022;7.012;2024-03-23T09:23:51;16.70;;;2.70;;
54259;SDS011;40172;53.022;7.012;2024-03-23T09:26:17;15.07;;;2.90;;
54259;SDS011;40172;53.022;7.012;2024-03-23T09:28:43;16.02;;;3.08;;
54259;SDS011;40172;53.022;7.012;2024-03-23T09:31:08;14.27;;;3.08;;
54259;SDS011;40172;53.022;7.012;2024-03-23T09:33:39;12.93;;;3.03;;
54259;SDS011;40172;53.022;7.012;2024-03-23T09:36:05;16.58;;;3.15;;
54259;SDS011;40172;53.022;7.012;2024-03-23T09:38:31;16.02;;;3.13;;
54259;SDS011;40172;53.022;7.012;2024-03-23T09:40:58;14.73;;;3.25;;
54259;SDS011;40172;53.022;7.012;2024-03-23T09:43:24;16.10;;;3.25;;
54259;SDS011;40172;53.022;7.012;2024-03-23T09:45:50;18.50;;;4.00;;
54259;SDS011;40172;53.022;7.012;2024-03-23T09:48:18;15.20;;;3.45;;
54259;SDS011;40172;53.022;7.012;2024-03-23T09:50:44;16.45;;;3.60;;
54259;SDS011;40172;53.022;7.012;2024-03-23T09:53:11;11.15;;;3.03;;
54259;SDS011;40172;53.022;7.012;2024-03-23T09:55:38;14.02;;;3.20;;
54259;SDS011;40172;53.022;7.012;2024-03-23T09:58:05;12.82;;;3.13;;
54259;SDS011;40172;53.022;7.012;2024-03-23T10:00:31;12.75;;;2.78;;
54259;SDS011;40172;53.022;7.012;2024-03-23T10:02:58;16.38;;;3.28;;
54259;SDS011;40172;53.022;7.012;2024-03-23T10:05:27;14.02;;;3.15;;
54259;SDS011;40172;53.022;7.012;2024-03-23T10:07:56;13.25;;;2.65;;
54259;SDS011;40172;53.022;7.012;2024-03-23T10:10:21;11.63;;;2.95;;
54259;SDS011;40172;53.022;7.012;2024-03-23T10:12:50;13.48;;;2.72;;
54259;SDS011;40172;53.022;7.012;2024-03-23T10:15:19;12.93;;;2.97;;
54259;SDS011;40172;53.022;7.012;2024-03-23T10:17:47;11.75;;;2.60;;
54259;SDS011;40172;53.022;7.012;2024-03-23T10:20:13;12.57;;;2.83;;
54259;SDS011;40172;53.022;7.012;2024-03-23T10:22:44;18.08;;;3.70;;
54259;SDS011;40172;53.022;7.012;2024-03-23T10:25:11;16.08;;;3.70;;
54259;SDS011;40172;53.022;7.012;2024-03-23T10:27:37;14.82;;;2.90;;
54259;SDS011;40172;53.022;7.012;2024-03-23T10:30:12;15.65;;;3.08;;
54259;SDS011;40172;53.022;7.012;2024-03-23T10:32:42;13.13;;;3.13;;
54259;SDS011;40172;53.022;7.012;2024-03-23T10:35:14;17.17;;;3.35;;
54259;SDS011;40172;53.022;7.012;2024-03-23T10:37:44;19.17;;;3.15;;
54259;SDS011;40172;53.022;7.012;2024-03-23T10:40:14;18.08;;;3.58;;
54259;SDS011;40172;53.022;7.012;2024-03-23T10:42:40;17.27;;;3.58;;
54259;SDS011;40172;53.022;7.012;2024-03-23T10:45:07;18.85;;;3.85;;
54259;SDS011;40172;53.022;7.012;2024-03-23T10:47:34;19.25;;;3.42;;
54259;SDS011;40172;53.022;7.012;2024-03-23T10:50:01;16.58;;;2.97;;
54259;SDS011;40172;53.022;7.012;2024-03-23T10:52:27;18.75;;;3.67;;
54259;SDS011;40172;53.022;7.012;2024-03-23T10:54:52;15.98;;;3.47;;
54259;SDS011;40172;53.022;7.012;2024-03-23T10:57:20;19.17;;;3.60;;
54259;SDS011;40172;53.022;7.012;2024-03-23T10:59:50;14.77;;;3.03;;
54259;SDS011;40172;53.022;7.012;2024-03-23T11:02:20;6.90;;;1.25;;
54259;SDS011;40172;53.022;7.012;2024-03-23T11:04:46;2.75;;;0.70;;
54259;SDS011;40172;53.022;7.012;2024-03-23T11:07:32;3.38;;;0.65;;
54259;SDS011;40172;53.022;7.012;2024-03-23T11:09:58;11.75;;;2.20;;
54259;SDS011;40172;53.022;7.012;2024-03-23T11:12:25;14.80;;;2.97;;
54259;SDS011;40172;53.022;7.012;2024-03-23T11:14:52;2.75;;;0.95;;
54259;SDS011;40172;53.022;7.012;2024-03-23T11:17:21;6.30;;;1.92;;
54259;SDS011;40172;53.022;7.012;2024-03-23T11:27:44;4.18;;;1.00;;
54259;SDS011;40172;53.022;7.012;2024-03-23T11:30:14;5.00;;;1.42;;
54259;SDS011;40172;53.022;7.012;2024-03-23T11:32:41;4.30;;;1.25;;
54259;SDS011;40172;53.022;7.012;2024-03-23T11:35:08;5.03;;;1.00;;
54259;SDS011;40172;53.022;7.012;2024-03-23T11:37:37;4.72;;;1.17;;
54259;SDS011;40172;53.022;7.012;2024-03-23T11:40:18;5.45;;;1.52;;
54259;SDS011;40172;53.022;7.012;2024-03-23T11:42:45;5.75;;;1.50;;
54259;SDS011;40172;53.022;7.012;2024-03-23T11:45:10;5.22;;;1.42;;
54259;SDS011;40172;53.022;7.012;2024-03-23T11:47:37;6.57;;;1.73;;
54259;SDS011;40172;53.022;7.012;2024-03-23T11:50:02;8.15;;;1.80;;
54259;SDS011;40172;53.022;7.012;2024-03-23T11:52:28;7.70;;;1.75;;
54259;SDS011;40172;53.022;7.012;2024-03-23T11:55:04;8.55;;;1.98;;
54259;SDS011;40172;53.022;7.012;2024-03-23T11:57:33;8.32;;;1.65;;
54259;SDS011;40172;53.022;7.012;2024-03-23T11:59:58;6.53;;;1.60;;
54259;SDS011;40172;53.022;7.012;2024-03-23T12:02:24;5.50;;;1.30;;
54259;SDS011;40172;53.022;7.012;2024-03-23T12:04:50;7.45;;;1.55;;
54259;SDS011;40172;53.022;7.012;2024-03-23T12:07:16;8.35;;;1.88;;
54259;SDS011;40172;53.022;7.012;2024-03-23T12:09:44;10.25;;;2.08;;
54259;SDS011;40172;53.022;7.012;2024-03-23T12:12:14;10.65;;;2.13;;
54259;SDS011;40172;53.022;7.012;2024-03-23T12:15:00;7.57;;;1.98;;
54259;SDS011;40172;53.022;7.012;2024-03-23T12:17:27;8.38;;;1.98;;
54259;SDS011;40172;53.022;7.012;2024-03-23T12:19:53;11.23;;;2.30;;
54259;SDS011;40172;53.022;7.012;2024-03-23T12:22:22;9.43;;;2.63;;
54259;SDS011;40172;53.022;7.012;2024-03-23T12:24:49;16.20;;;2.55;;
54259;SDS011;40172;53.022;7.012;2024-03-23T12:27:14;12.68;;;2.75;;
54259;SDS011;40172;53.022;7.012;2024-03-23T12:29:40;4.22;;;1.17;;
54259;SDS011;40172;53.022;7.012;2024-03-23T12:32:11;4.63;;;1.00;;
54259;SDS011;40172;53.022;7.012;2024-03-23T12:34:40;4.95;;;1.20;;
54259;SDS011;40172;53.022;7.012;2024-03-23T12:37:06;7.47;;;1.60;;
54259;SDS011;40172;53.022;7.012;2024-03-23T12:39:32;12.23;;;1.77;;
54259;SDS011;40172;53.022;7.012;2024-03-23T12:42:00;3.72;;;1.20;;
54259;SDS011;40172;53.022;7.012;2024-03-23T12:44:26;3.60;;;1.02;;
54259;SDS011;40172;53.022;7.012;2024-03-23T12:46:51;9.52;;;1.63;;
54259;SDS011;40172;53.022;7.012;2024-03-23T12:49:17;10.68;;;2.17;;
54259;SDS011;40172;53.022;7.012;2024-03-23T12:51:47;6.78;;;1.88;;
54259;SDS011;40172;53.022;7.012;2024-03-23T12:54:19;7.82;;;1.90;;
54259;SDS011;40172;53.022;7.012;2024-03-23T12:56:45;8.10;;;1.77;;
54259;SDS011;40172;53.022;7.012;2024-03-23T12:59:11;7.95;;;2.00;;
54259;SDS011;40172;53.022;7.012;2024-03-23T13:01:38;10.43;;;2.40;;
54259;SDS011;40172;53.022;7.012;2024-03-23T13:04:04;17.27;;;3.53;;
54259;SDS011;40172;53.022;7.012;2024-03-23T13:06:29;17.10;;;3.58;;
54259;SDS011;40172;53.022;7.012;2024-03-23T13:09:00;11.85;;;2.80;;
54259;SDS011;40172;53.022;7.012;2024-03-23T13:11:29;14.40;;;3.00;;
54259;SDS011;40172;53.022;7.012;2024-03-23T13:13:55;11.18;;;2.58;;
54259;SDS011;40172;53.022;7.012;2024-03-23T13:16:20;13.15;;;2.63;;
54259;SDS011;40172;53.022;7.012;2024-03-23T13:18:46;10.70;;;2.50;;
54259;SDS011;40172;53.022;7.012;2024-03-23T13:21:12;11.40;;;2.72;;
54259;SDS011;40172;53.022;7.012;2024-03-23T13:23:37;6.88;;;1.90;;
54259;SDS011;40172;53.022;7.012;2024-03-23T13:26:07;6.15;;;1.77;;
54259;SDS011;40172;53.022;7.012;2024-03-23T13:28:33;6.22;;;1.60;;
54259;SDS011;40172;53.022;7.012;2024-03-23T13:30:58;10.48;;;2.35;;
54259;SDS011;40172;53.022;7.012;2024-03-23T13:33:28;13.90;;;2.78;;
54259;SDS011;40172;53.022;7.012;2024-03-23T13:35:55;15.85;;;3.10;;
54259;SDS011;40172;53.022;7.012;2024-03-23T13:38:24;15.93;;;2.90;;
54259;SDS011;40172;53.022;7.012;2024-03-23T13:43:20;11.70;;;2.53;;
54259;SDS011;40172;53.022;7.012;2024-03-23T13:45:56;14.93;;;2.80;;
54259;SDS011;40172;53.022;7.012;2024-03-23T13:48:23;16.23;;;2.90;;
54259;SDS011;40172;53.022;7.012;2024-03-23T13:51:05;13.70;;;3.00;;
54259;SDS011;40172;53.022;7.012;2024-03-23T13:53:30;9.65;;;1.50;;
54259;SDS011;40172;53.022;7.012;2024-03-23T13:55:59;5.75;;;1.17;;
54259;SDS011;40172;53.022;7.012;2024-03-23T13:58:25;14.77;;;1.17;;
54259;SDS011;40172;53.022;7.012;2024-03-23T14:00:51;14.77;;;3.38;;
54259;SDS011;40172;53.022;7.012;2024-03-23T14:03:17;12.73;;;3.13;;
54259;SDS011;40172;53.022;7.012;2024-03-23T14:05:46;18.58;;;3.30;;
54259;SDS011;40172;53.022;7.012;2024-03-23T14:08:14;13.63;;;3.03;;
54259;SDS011;40172;53.022;7.012;2024-03-23T14:10:41;14.10;;;3.15;;
54259;SDS011;40172;53.022;7.012;2024-03-23T14:13:07;12.50;;;3.13;;
54259;SDS011;40172;53.022;7.012;2024-03-23T14:15:33;17.42;;;3.65;;
54259;SDS011;40172;53.022;7.012;2024-03-23T14:17:59;18.17;;;3.55;;
54259;SDS011;40172;53.022;7.012;2024-03-23T14:20:24;15.48;;;3.00;;
54259;SDS011;40172;53.022;7.012;2024-03-23T14:22:51;17.63;;;3.60;;
54259;SDS011;40172;53.022;7.012;2024-03-23T14:25:17;17.77;;;3.33;;
54259;SDS011;40172;53.022;7.012;2024-03-23T14:27:43;12.23;;;3.10;;
54259;SDS011;40172;53.022;7.012;2024-03-23T14:30:10;13.63;;;3.15;;
54259;SDS011;40172;53.022;7.012;2024-03-23T14:32:37;13.20;;;2.90;;
54259;SDS011;40172;53.022;7.012;2024-03-23T14:35:03;15.48;;;3.00;;
54259;SDS011;40172;53.022;7.012;2024-03-23T14:37:29;17.60;;;2.85;;
54259;SDS011;40172;53.022;7.012;2024-03-23T14:39:56;15.00;;;2.90;;
54259;SDS011;40172;53.022;7.012;2024-03-23T14:42:22;14.20;;;2.88;;
54259;SDS011;40172;53.022;7.012;2024-03-23T14:44:49;11.38;;;2.75;;
54259;SDS011;40172;53.022;7.012;2024-03-23T14:47:18;14.35;;;3.58;;
54259;SDS011;40172;53.022;7.012;2024-03-23T14:49:44;13.85;;;3.15;;
54259;SDS011;40172;53.022;7.012;2024-03-23T14:52:15;16.33;;;3.30;;
54259;SDS011;40172;53.022;7.012;2024-03-23T14:54:42;17.30;;;3.72;;
54259;SDS011;40172;53.022;7.012;2024-03-23T14:57:08;17.08;;;3.40;;
54259;SDS011;40172;53.022;7.012;2024-03-23T14:59:34;15.70;;;3.58;;
54259;SDS011;40172;53.022;7.012;2024-03-23T15:02:01;18.55;;;3.90;;
54259;SDS011;40172;53.022;7.012;2024-03-23T15:04:26;19.52;;;4.00;;
54259;SDS011;40172;53.022;7.012;2024-03-23T15:06:52;16.10;;;3.38;;
54259;SDS011;40172;53.022;7.012;2024-03-23T15:09:18;16.27;;;3.47;;
54259;SDS011;40172;53.022;7.012;2024-03-23T15:11:43;18.38;;;4.07;;
54259;SDS011;40172;53.022;7.012;2024-03-23T15:14:09;17.45;;;3.58;;
54259;SDS011;40172;53.022;7.012;2024-03-23T15:16:36;16.02;;;3.30;;
54259;SDS011;40172;53.022;7.012;2024-03-23T15:19:02;21.33;;;3.30;;
54259;SDS011;40172;53.022;7.012;2024-03-23T15:21:28;16.38;;;3.42;;
54259;SDS011;40172;53.022;7.012;2024-03-23T15:23:53;19.70;;;3.20;;
54259;SDS011;40172;53.022;7.012;2024-03-23T15:26:19;15.85;;;3.33;;
54259;SDS011;40172;53.022;7.012;2024-03-23T15:28:48;11.60;;;2.22;;
54259;SDS011;40172;53.022;7.012;2024-03-23T15:31:23;15.18;;;2.72;;
54259;SDS011;40172;53.022;7.012;2024-03-23T15:33:49;10.23;;;2.00;;
54259;SDS011;40172;53.022;7.012;2024-03-23T15:36:15;11.10;;;2.58;;
54259;SDS011;40172;53.022;7.012;2024-03-23T15:38:41;11.48;;;2.47;;
54259;SDS011;40172;53.022;7.012;2024-03-23T15:41:07;12.82;;;3.13;;
54259;SDS011;40172;53.022;7.012;2024-03-23T15:43:34;14.38;;;2.67;;
54259;SDS011;40172;53.022;7.012;2024-03-23T15:46:00;12.23;;;2.47;;
54259;SDS011;40172;53.022;7.012;2024-03-23T15:48:27;11.80;;;2.40;;